Search for airport 
image banner adimage banner adimage banner ad
image banner ad

8PN2 - Hallett's

Located in Bangor, United States

ICAO - 8PN2, IATA -

Data provided by Airmate  

General information

Coordinates: N40°54'38" W75°9'54"
Elevation is 700 feet MSL.
 
View others Airports in Pennsylvania

Operational data

Special qualification required
Current time UTC:
Current local time:
Weather at : KMPO - Pocono Mountains Muni ( 31 km )
METAR: KMPO 071253Z AUTO 11010G16KT 10SM CLR 08/M03 A2991 RMK AO2 SLP134 T00831028
View NOTAMs / SUP AIP / TFR affecting this airport [VIEW]
Communications frequencies: [VIEW]

Runways:

RWY identifierQFULength (ft)Width (ft)SurfaceLDA (ft)
07160050GRASS
25160050GRASS

Airport contact information

Address: Bangor United States

Satellite view of 8PN2